Time;durP1;ratioP1;P1;durP2;ratioP2;P2;SDS_P1;SDS_P2;PMS_P1;PMS_P2;Temp;Humidity;BMP_temperature;BMP_pressure;BME280_temperature;BME280_humidity;BME280_pressure;Samples;Min_cycle;Max_cycle;Signal;HPM_P1;HPM_P2
2022/04/15 00:01:13;;;;;;;;;;;;;;;5.15;59.99;101656.06;4956815;29;1339;-95
2022/04/15 00:03:39;;;;;;;;;;;;;;;5.15;59.92;101665.91;4956658;29;1188;-96
2022/04/15 00:06:08;;;;;;;;;;;;;;;5.14;60.04;101665.03;4954867;28;2030;-95
2022/04/15 00:08:35;;;;;;;;;;;;;;;5.13;59.87;101660.72;4957217;29;1254;-95
2022/04/15 00:11:01;;;;;;;;;;;;;;;5.12;59.96;101659.03;4945493;29;2196;-95
2022/04/15 00:13:29;;;;;;;;;;;;;;;5.12;59.70;101669.72;4955906;29;1920;-94
2022/04/15 00:15:56;;;;;;;;;;;;;;;5.13;59.95;101667.88;4955891;29;2254;-93
2022/04/15 00:18:23;;;;;;;;;;;;;;;5.11;59.79;101673.38;4956181;29;1922;-95
2022/04/15 00:20:50;;;;;;;;;;;;;;;5.11;59.88;101673.38;4956184;29;1325;-95
2022/04/15 00:23:18;;;;;;;;;;;;;;;5.11;59.91;101669.88;4956192;29;1182;-95
2022/04/15 00:25:44;;;;;;;;;;;;;;;5.11;59.82;101669.88;4955434;29;1856;-95
2022/04/15 00:28:11;;;;;;;;;;;;;;;5.10;59.87;101673.53;4954840;28;1239;-95
2022/04/15 00:30:38;;;;;;;;;;;;;;;5.09;59.85;101677.19;4955527;28;1919;-94
2022/04/15 00:33:04;;;;;;;;;;;;;;;5.08;59.75;101681.69;4956205;29;1166;-95
2022/04/15 00:35:31;;;;;;;;;;;;;;;5.09;60.00;101678.06;4955166;29;1865;-96
2022/04/15 00:37:57;;;;;;;;;;;;;;;5.08;59.76;101686.22;4955424;28;1907;-95
2022/04/15 00:40:24;;;;;;;;;;;;;;;5.08;59.75;101683.53;4955834;29;1188;-95
2022/04/15 00:42:51;;;;;;;;;;;;;;;5.06;59.75;101689.06;4956021;29;1261;-95
2022/04/15 00:45:17;;;;;;;;;;;;;;;5.06;59.85;101693.53;4955466;29;2042;-95
2022/04/15 00:47:44;;;;;;;;;;;;;;;5.05;59.77;101697.19;4955570;29;1209;-95
2022/04/15 00:50:10;;;;;;;;;;;;;;;5.04;59.68;101706.22;4955894;29;1291;-96
2022/04/15 00:52:37;;;;;;;;;;;;;;;5.05;59.78;101707.88;4955827;29;1185;-95
2022/04/15 00:55:04;;;;;;;;;;;;;;;5.04;59.76;101704.38;4955051;29;1928;-95
2022/04/15 00:57:30;;;;;;;;;;;;;;;5.03;59.67;101708.06;4955306;29;1977;-95
2022/04/15 00:59:57;;;;;;;;;;;;;;;5.01;59.91;101712.69;4963640;28;1977;-94
2022/04/15 01:02:23;;;;;;;;;;;;;;;5.01;59.67;101715.38;4955252;29;1204;-95
2022/04/15 01:04:50;;;;;;;;;;;;;;;5.00;59.65;101714.53;4954724;29;2404;-95
2022/04/15 01:07:17;;;;;;;;;;;;;;;5.01;59.80;101713.53;4955284;29;1201;-95
2022/04/15 01:09:43;;;;;;;;;;;;;;;4.99;59.87;101720.84;4955568;29;1396;-95
2022/04/15 01:12:10;;;;;;;;;;;;;;;4.99;59.69;101722.69;4954255;28;1870;-95
2022/04/15 01:14:37;;;;;;;;;;;;;;;4.98;59.67;101735.22;4954750;29;2090;-95
2022/04/15 01:17:03;;;;;;;;;;;;;;;4.97;59.77;101725.53;4954830;29;2047;-95
2022/04/15 01:19:30;;;;;;;;;;;;;;;4.96;59.77;101725.66;4955650;29;1194;-95
2022/04/15 01:21:56;;;;;;;;;;;;;;;4.96;59.77;101729.16;4955230;29;1308;-95
2022/04/15 01:24:23;;;;;;;;;;;;;;;4.95;59.82;101729.34;4951669;29;2174;-95
2022/04/15 01:26:49;;;;;;;;;;;;;;;4.95;59.63;101738.19;4949908;29;2158;-95
2022/04/15 01:29:16;;;;;;;;;;;;;;;4.95;59.48;101738.19;4954327;29;2001;-95
2022/04/15 01:31:43;;;;;;;;;;;;;;;4.93;59.51;101737.50;4955144;29;1166;-95
2022/04/15 01:34:09;;;;;;;;;;;;;;;4.92;59.77;101746.50;4959821;28;1848;-95
2022/04/15 01:36:36;;;;;;;;;;;;;;;4.92;59.59;101748.34;4944200;28;1981;-96
2022/04/15 01:39:02;;;;;;;;;;;;;;;4.92;59.55;101748.34;4951529;29;1257;-95
2022/04/15 01:41:29;;;;;;;;;;;;;;;4.92;59.67;101757.19;4935720;29;1207;-95
2022/04/15 01:43:55;;;;;;;;;;;;;;;4.92;59.71;101754.50;4944838;29;4153;-95
2022/04/15 01:46:22;;;;;;;;;;;;;;;4.90;59.55;101769.00;4941492;29;4040;-96
2022/04/15 01:48:48;;;;;;;;;;;;;;;4.90;59.66;101766.34;4953297;29;1210;-95
2022/04/15 01:51:15;;;;;;;;;;;;;;;4.89;59.47;101783.34;4937115;29;1198;-94
2022/04/15 01:53:42;;;;;;;;;;;;;;;4.89;59.37;101781.53;4952270;29;2107;-94
2022/04/15 01:56:08;;;;;;;;;;;;;;;4.88;59.42;101782.53;4953329;29;2148;-95
2022/04/15 01:58:34;;;;;;;;;;;;;;;4.87;59.61;101780.81;4957375;29;2090;-95
2022/04/15 02:01:01;;;;;;;;;;;;;;;4.86;59.54;101784.50;4955096;29;2091;-95
2022/04/15 02:03:27;;;;;;;;;;;;;;;4.87;59.42;101793.34;4956627;29;1214;-95
2022/04/15 02:05:54;;;;;;;;;;;;;;;4.85;59.61;101788.13;4953195;29;1964;-95
2022/04/15 02:08:21;;;;;;;;;;;;;;;4.85;59.36;101790.81;4956207;29;1249;-95
2022/04/15 02:10:47;;;;;;;;;;;;;;;4.85;59.50;101793.47;4972504;28;1165;-95
2022/04/15 02:13:13;;;;;;;;;;;;;;;4.84;59.54;101796.31;4956176;28;1355;-95
2022/04/15 02:15:40;;;;;;;;;;;;;;;4.84;59.50;101799.81;4954117;29;2096;-94
2022/04/15 02:18:07;;;;;;;;;;;;;;;4.83;59.53;101802.66;4955709;29;1907;-95
2022/04/15 02:20:33;;;;;;;;;;;;;;;4.82;59.61;101808.97;4955721;29;1424;-95
2022/04/15 02:23:00;;;;;;;;;;;;;;;4.82;59.49;101806.28;4952806;29;2218;-95
2022/04/15 02:25:26;;;;;;;;;;;;;;;4.81;59.40;101817.97;4946461;29;2064;-95
2022/04/15 02:27:53;;;;;;;;;;;;;;;4.81;59.55;101812.63;4955622;29;1326;-95
2022/04/15 02:30:19;;;;;;;;;;;;;;;4.80;59.39;101816.31;4955096;29;2096;-95
2022/04/15 02:32:46;;;;;;;;;;;;;;;4.78;59.52;101819.09;4953688;29;1302;-95
2022/04/15 02:35:12;;;;;;;;;;;;;;;4.77;59.37;101820.94;4955536;29;2267;-95
2022/04/15 02:37:39;;;;;;;;;;;;;;;4.76;59.63;101832.63;4955548;29;1919;-95
2022/04/15 02:40:06;;;;;;;;;;;;;;;4.76;59.54;101837.97;4956168;29;1241;-95
2022/04/15 02:42:33;;;;;;;;;;;;;;;4.74;59.42;101834.59;4952213;29;2281;-94
2022/04/15 02:44:59;;;;;;;;;;;;;;;4.74;59.51;101839.94;4950078;28;2175;-95
2022/04/15 02:47:26;;;;;;;;;;;;;;;4.74;59.38;101837.25;4954404;29;1800;-95
2022/04/15 02:49:52;;;;;;;;;;;;;;;4.75;59.45;101846.94;4943483;29;1236;-95
2022/04/15 02:52:19;;;;;;;;;;;;;;;4.73;59.32;101848.91;4942487;29;2175;-95
2022/04/15 02:54:45;;;;;;;;;;;;;;;4.72;59.48;101843.72;4958127;29;2130;-95
2022/04/15 02:57:12;;;;;;;;;;;;;;;4.72;59.49;101847.22;4953205;29;2263;-95
2022/04/15 02:59:38;;;;;;;;;;;;;;;4.71;59.40;101852.75;4958387;29;2036;-95
2022/04/15 03:02:05;;;;;;;;;;;;;;;4.69;59.50;101855.53;4958754;29;2342;-95
2022/04/15 03:04:31;;;;;;;;;;;;;;;4.70;59.31;101859.03;4959271;29;1310;-95
2022/04/15 03:06:58;;;;;;;;;;;;;;;4.69;59.40;101852.03;4959073;29;1308;-95
2022/04/15 03:09:25;;;;;;;;;;;;;;;4.68;59.37;101856.53;4958137;29;2064;-95
2022/04/15 03:11:51;;;;;;;;;;;;;;;4.69;59.55;101857.38;4956068;28;2249;-95
2022/04/15 03:14:18;;;;;;;;;;;;;;;4.67;59.38;101856.69;4956154;29;2068;-94
2022/04/15 03:16:44;;;;;;;;;;;;;;;4.66;59.33;101858.50;4954892;29;2179;-95
2022/04/15 03:19:11;;;;;;;;;;;;;;;4.66;59.32;101860.34;4957195;29;2067;-96
2022/04/15 03:21:37;;;;;;;;;;;;;;;4.65;59.34;101861.34;4955569;29;2324;-95
2022/04/15 03:24:04;;;;;;;;;;;;;;;4.64;59.40;101860.47;4939729;29;1182;-95
2022/04/15 03:26:30;;;;;;;;;;;;;;;4.63;59.24;101863.31;4940739;29;2150;-94
2022/04/15 03:28:57;;;;;;;;;;;;;;;4.64;59.41;101867.66;4956851;29;1929;-94
2022/04/15 03:31:24;;;;;;;;;;;;;;;4.63;59.27;101863.31;4951190;28;2186;-96
2022/04/15 03:33:50;;;;;;;;;;;;;;;4.61;59.35;101871.44;4941810;29;4912;-95
2022/04/15 03:36:17;;;;;;;;;;;;;;;4.61;59.36;101875.97;4951240;29;1246;-95
2022/04/15 03:38:43;;;;;;;;;;;;;;;4.59;59.40;101867.25;4955562;29;1988;-96
2022/04/15 03:41:10;;;;;;;;;;;;;;;4.60;59.32;101876.97;4952827;29;2397;-95
2022/04/15 03:43:36;;;;;;;;;;;;;;;4.58;59.34;101882.44;4956722;29;2183;-95
2022/04/15 03:46:03;;;;;;;;;;;;;;;4.58;59.29;101894.94;4950672;29;4783;-95
2022/04/15 03:48:29;;;;;;;;;;;;;;;4.57;59.24;101894.09;4946866;29;4298;-95
2022/04/15 03:50:56;;;;;;;;;;;;;;;4.57;59.39;101898.59;4950962;29;1997;-95
2022/04/15 03:53:23;;;;;;;;;;;;;;;4.55;59.43;101896.91;4943454;29;2432;-94
2022/04/15 03:55:50;;;;;;;;;;;;;;;4.54;59.09;101897.06;4940859;29;1957;-94
2022/04/15 03:58:17;;;;;;;;;;;;;;;4.54;59.35;101902.41;4949663;29;2334;-95
2022/04/15 04:00:44;;;;;;;;;;;;;;;4.54;59.18;101905.06;4946203;29;2488;-95
2022/04/15 04:03:10;;;;;;;;;;;;;;;4.52;59.40;101893.69;4943289;29;1312;-95
2022/04/15 04:05:37;;;;;;;;;;;;;;;4.51;59.07;101903.53;4957145;29;2095;-95
2022/04/15 04:08:03;;;;;;;;;;;;;;;4.51;59.09;101905.38;4958258;29;1252;-94
2022/04/15 04:10:30;;;;;;;;;;;;;;;4.50;59.32;101909.88;4958511;29;1200;-95
2022/04/15 04:12:58;;;;;;;;;;;;;;;4.50;59.31;101915.19;4958033;29;1340;-95
2022/04/15 04:15:24;;;;;;;;;;;;;;;4.49;59.45;101915.34;4954842;29;2234;-95
2022/04/15 04:17:51;;;;;;;;;;;;;;;4.47;59.44;101923.50;4956812;29;2148;-95
2022/04/15 04:20:17;;;;;;;;;;;;;;;4.47;59.05;101925.31;4957939;29;1193;-95
2022/04/15 04:22:44;;;;;;;;;;;;;;;4.46;59.50;101924.47;4957515;29;2346;-95
2022/04/15 04:25:10;;;;;;;;;;;;;;;4.46;59.24;101932.47;4956209;29;2136;-94
2022/04/15 04:27:37;;;;;;;;;;;;;;;4.47;59.28;101933.31;4957655;29;2229;-95
2022/04/15 04:30:04;;;;;;;;;;;;;;;4.44;59.15;101933.59;4949256;29;1961;-95
2022/04/15 04:32:30;;;;;;;;;;;;;;;4.45;59.12;101938.81;4957475;29;1626;-95
2022/04/15 04:34:57;;;;;;;;;;;;;;;4.45;59.10;101940.63;4953950;29;2171;-95
2022/04/15 04:37:23;;;;;;;;;;;;;;;4.43;59.14;101948.78;4956945;29;1354;-95
2022/04/15 04:39:50;;;;;;;;;;;;;;;4.43;59.05;101946.09;4953076;29;1259;-94
2022/04/15 04:42:16;;;;;;;;;;;;;;;4.43;59.15;101955.94;4971029;28;2058;-95
2022/04/15 04:44:43;;;;;;;;;;;;;;;4.43;59.04;101964.78;4956549;29;1227;-94
2022/04/15 04:47:09;;;;;;;;;;;;;;;4.44;59.01;101965.63;4955873;29;2092;-94
2022/04/15 04:49:36;;;;;;;;;;;;;;;4.45;59.12;101964.66;4957454;29;1333;-95
2022/04/15 04:52:02;;;;;;;;;;;;;;;4.44;59.17;101961.13;4957169;29;1197;-95
2022/04/15 04:54:29;;;;;;;;;;;;;;;4.47;58.81;101971.53;4958413;29;1351;-95
2022/04/15 04:56:56;;;;;;;;;;;;;;;4.47;58.79;101968.00;4956455;29;2096;-95
2022/04/15 04:59:25;;;;;;;;;;;;;;;4.48;58.79;101967.84;4956497;29;2241;-95
2022/04/15 05:01:51;;;;;;;;;;;;;;;4.49;58.81;101972.19;4943124;29;1972;-95
2022/04/15 05:04:18;;;;;;;;;;;;;;;4.48;58.57;101973.19;4938244;29;1198;-95
2022/04/15 05:06:44;;;;;;;;;;;;;;;4.49;58.68;101984.69;4951987;29;2098;-94
2022/04/15 05:09:11;;;;;;;;;;;;;;;4.49;58.57;101987.38;4956320;29;2030;-95
2022/04/15 05:11:38;;;;;;;;;;;;;;;4.49;58.67;101992.72;4958012;28;1241;-95
2022/04/15 05:14:04;;;;;;;;;;;;;;;4.48;58.67;101999.03;4955454;28;1875;-95
2022/04/15 05:16:31;;;;;;;;;;;;;;;4.51;58.65;102006.75;4948609;28;2240;-94
2022/04/15 05:18:57;;;;;;;;;;;;;;;4.49;58.46;102009.56;4950402;29;1914;-95
2022/04/15 05:21:24;;;;;;;;;;;;;;;4.49;58.52;102014.88;4950475;29;2158;-95
2022/04/15 05:23:50;;;;;;;;;;;;;;;4.51;58.46;102015.59;4956192;29;2076;-95
2022/04/15 05:26:17;;;;;;;;;;;;;;;4.50;58.35;102021.06;4953532;29;2352;-95
2022/04/15 05:28:44;;;;;;;;;;;;;;;4.51;58.43;102030.78;4951997;29;2001;-95
2022/04/15 05:31:10;;;;;;;;;;;;;;;4.53;58.38;102029.66;4950251;29;2302;-95
2022/04/15 05:33:37;;;;;;;;;;;;;;;4.54;58.37;102033.16;4953083;29;2174;-95
2022/04/15 05:36:03;;;;;;;;;;;;;;;4.54;58.14;102035.81;4955751;28;4755;-95
2022/04/15 05:38:30;;;;;;;;;;;;;;;4.53;58.33;102036.81;4956002;29;1978;-95
2022/04/15 05:40:56;;;;;;;;;;;;;;;4.55;58.18;102042.81;4954022;29;2107;-95
2022/04/15 05:43:23;;;;;;;;;;;;;;;4.52;58.23;102054.63;4955160;29;3380;-95
2022/04/15 05:45:49;;;;;;;;;;;;;;;4.52;58.34;102053.78;4953946;29;2183;-95
2022/04/15 05:48:16;;;;;;;;;;;;;;;4.52;58.28;102057.28;4955816;29;2183;-94
2022/04/15 05:50:43;;;;;;;;;;;;;;;4.55;58.14;102054.34;4954350;29;2154;-95
2022/04/15 05:53:09;;;;;;;;;;;;;;;4.54;58.05;102055.31;4956524;29;1350;-95
2022/04/15 05:55:36;;;;;;;;;;;;;;;4.56;58.29;102060.53;4955714;29;2139;-94
2022/04/15 05:58:02;;;;;;;;;;;;;;;4.55;58.11;102054.34;4956559;29;1978;-94
2022/04/15 06:00:29;;;;;;;;;;;;;;;4.56;58.09;102060.53;4955382;29;2182;-94
2022/04/15 06:02:55;;;;;;;;;;;;;;;4.57;58.05;102064.88;4968134;28;1620;-94
2022/04/15 06:05:24;;;;;;;;;;;;;;;4.60;58.03;102074.44;4966751;28;2234;-94
2022/04/15 06:07:52;;;;;;;;;;;;;;;4.61;58.03;102076.94;4955898;29;1317;-95
2022/04/15 06:10:19;;;;;;;;;;;;;;;4.61;57.94;102087.63;4950954;29;4041;-93
2022/04/15 06:13:06;;;;;;;;;;;;;;;4.62;57.94;102080.44;4954377;28;1913;-93
2022/04/15 06:15:32;;;;;;;;;;;;;;;4.65;57.77;102075.69;4954870;29;2291;-94
2022/04/15 06:17:59;;;;;;;;;;;;;;;4.66;57.64;102092.53;4953905;29;1915;-94
2022/04/15 06:20:25;;;;;;;;;;;;;;;4.65;57.94;102091.69;4948279;29;2183;-94
2022/04/15 06:22:52;;;;;;;;;;;;;;;4.67;57.79;102102.22;4955782;29;1187;-94
2022/04/15 06:25:18;;;;;;;;;;;;;;;4.67;57.70;102103.06;4956941;29;949;-94
2022/04/15 06:27:45;;;;;;;;;;;;;;;4.68;57.74;102112.75;4955801;28;1289;-94
2022/04/15 06:30:12;;;;;;;;;;;;;;;4.70;57.70;102109.94;4950043;29;2199;-94
2022/04/15 06:32:38;;;;;;;;;;;;;;;4.70;57.67;102105.44;4956616;29;1293;-95
2022/04/15 06:35:05;;;;;;;;;;;;;;;4.67;57.73;102111.06;4958960;29;1211;-94
2022/04/15 06:37:31;;;;;;;;;;;;;;;4.70;57.67;102118.78;4960417;29;1329;-94
2022/04/15 06:39:58;;;;;;;;;;;;;;;4.70;57.48;102121.44;4958867;29;1937;-94
2022/04/15 06:42:24;;;;;;;;;;;;;;;4.70;57.53;102105.44;4958855;29;1929;-93
2022/04/15 06:44:51;;;;;;;;;;;;;;;4.70;57.64;102112.59;4959094;29;2139;-94
2022/04/15 06:47:17;;;;;;;;;;;;;;;4.71;57.78;102122.31;4959523;29;1205;-93
2022/04/15 06:49:45;;;;;;;;;;;;;;;4.71;57.76;102122.31;4959237;29;2170;-94
2022/04/15 06:52:11;;;;;;;;;;;;;;;4.72;57.82;102122.16;4959454;29;1183;-94
2022/04/15 06:54:38;;;;;;;;;;;;;;;4.70;57.63;102125.94;4959608;29;1290;-94
2022/04/15 06:57:05;;;;;;;;;;;;;;;4.74;57.82;102140.72;4959135;28;1193;-93
2022/04/15 06:59:31;;;;;;;;;;;;;;;4.73;57.66;102139.00;4957510;29;2175;-94
2022/04/15 07:01:59;;;;;;;;;;;;;;;4.72;57.66;102137.34;4960449;28;1269;-93
2022/04/15 07:04:25;;;;;;;;;;;;;;;4.72;57.60;102146.19;4959275;29;2292;-93
2022/04/15 07:06:51;;;;;;;;;;;;;;;4.72;57.47;102142.66;4959045;29;1329;-93
2022/04/15 07:09:18;;;;;;;;;;;;;;;4.74;57.54;102140.72;4959116;29;2157;-93
2022/04/15 07:11:45;;;;;;;;;;;;;;;4.72;57.69;102143.50;4970697;28;1390;-93
2022/04/15 07:14:11;;;;;;;;;;;;;;;4.72;57.57;102148.00;4947871;29;2001;-93
2022/04/15 07:16:38;;;;;;;;;;;;;;;4.72;57.79;102148.84;4947458;29;2439;-94
2022/04/15 07:19:05;;;;;;;;;;;;;;;4.71;57.70;102157.00;4946983;29;2250;-93
2022/04/15 07:21:31;;;;;;;;;;;;;;;4.72;57.76;102154.19;4959041;29;1290;-94
2022/04/15 07:23:58;;;;;;;;;;;;;;;4.75;57.63;102153.06;4955885;28;1190;-93
2022/04/15 07:26:24;;;;;;;;;;;;;;;4.73;57.69;102155.03;4950493;29;1673;-94
2022/04/15 07:28:51;;;;;;;;;;;;;;;4.75;57.70;102155.72;4958355;29;2020;-93
2022/04/15 07:31:17;;;;;;;;;;;;;;;4.73;57.61;102161.19;4958680;29;1200;-93
2022/04/15 07:33:46;;;;;;;;;;;;;;;4.73;57.82;102155.84;4958812;29;1181;-94
2022/04/15 07:38:53;;;;;;;;;;;;;;;4.71;57.83;102160.53;4956243;28;2090;-94
2022/04/15 07:41:19;;;;;;;;;;;;;;;4.75;57.90;102163.75;4958521;29;1316;-94
2022/04/15 07:43:48;;;;;;;;;;;;;;;4.71;57.65;102162.34;4971254;28;2063;-93
2022/04/15 07:46:14;;;;;;;;;;;;;;;4.72;57.81;102169.38;4958558;29;1310;-94
2022/04/15 07:48:40;;;;;;;;;;;;;;;4.72;57.86;102170.19;4952741;29;4256;-94
2022/04/15 07:51:07;;;;;;;;;;;;;;;4.76;57.77;102176.97;4943494;29;4840;-94
2022/04/15 07:53:34;;;;;;;;;;;;;;;4.74;57.75;102170.06;4938573;28;2783;-94
2022/04/15 07:56:01;;;;;;;;;;;;;;;4.77;57.74;102172.47;4951291;29;3832;-95
2022/04/15 07:58:27;;;;;;;;;;;;;;;4.78;57.49;102177.63;4956033;29;2055;-95
2022/04/15 08:00:54;;;;;;;;;;;;;;;4.75;57.86;102179.75;4957064;28;2047;-95
2022/04/15 08:03:21;;;;;;;;;;;;;;;4.76;57.89;102184.97;4957967;29;2678;-95
2022/04/15 08:05:47;;;;;;;;;;;;;;;4.76;57.82;102190.31;4946310;29;2144;-94
2022/04/15 08:08:14;;;;;;;;;;;;;;;4.76;57.87;102192.97;4956555;29;2056;-95
2022/04/15 08:10:40;;;;;;;;;;;;;;;4.78;57.78;102190.16;4958270;29;1201;-95
2022/04/15 08:13:07;;;;;;;;;;;;;;;4.80;57.81;102187.34;4956223;28;2080;-95
2022/04/15 08:15:33;;;;;;;;;;;;;;;4.80;57.93;102193.53;4969102;28;1265;-95
2022/04/15 08:18:00;;;;;;;;;;;;;;;4.82;57.81;102196.03;4938609;29;2183;-95
2022/04/15 08:20:26;;;;;;;;;;;;;;;4.81;57.79;102203.22;4938705;29;1918;-95
2022/04/15 08:22:53;;;;;;;;;;;;;;;4.80;57.90;102190.84;4938927;29;1190;-95
2022/04/15 08:25:20;;;;;;;;;;;;;;;4.81;58.00;102191.69;4953175;29;2206;-95
2022/04/15 08:27:46;;;;;;;;;;;;;;;4.83;57.87;102192.41;4947351;28;4334;-95
2022/04/15 08:30:12;;;;;;;;;;;;;;;4.86;57.82;102195.63;4957194;29;1319;-94
2022/04/15 08:32:39;;;;;;;;;;;;;;;4.85;57.89;102209.09;4957725;29;1186;-96
2022/04/15 08:35:06;;;;;;;;;;;;;;;4.87;57.99;102210.66;4954563;29;2338;-96
2022/04/15 08:37:33;;;;;;;;;;;;;;;4.88;57.88;102211.50;4951398;29;4261;-95
2022/04/15 08:40:00;;;;;;;;;;;;;;;4.90;57.76;102204.19;4945944;29;1978;-96
2022/04/15 08:42:26;;;;;;;;;;;;;;;4.88;58.00;102212.34;4941196;29;2171;-96
2022/04/15 08:44:53;;;;;;;;;;;;;;;4.89;57.90;102207.84;4951598;29;4106;-96
2022/04/15 08:47:19;;;;;;;;;;;;;;;4.90;57.98;102215.72;4956400;29;2464;-96
2022/04/15 08:49:46;;;;;;;;;;;;;;;4.96;57.82;102215.13;4954548;28;2642;-96
2022/04/15 08:52:13;;;;;;;;;;;;;;;4.94;57.77;102211.78;4943120;29;1235;-96
2022/04/15 08:54:39;;;;;;;;;;;;;;;4.93;57.82;102210.09;4943437;29;2277;-96
2022/04/15 08:57:06;;;;;;;;;;;;;;;4.96;58.07;102207.13;4955983;29;2092;-96
2022/04/15 08:59:33;;;;;;;;;;;;;;;4.94;58.05;102206.44;4957340;29;1996;-96
2022/04/15 09:02:00;;;;;;;;;;;;;;;4.95;58.04;102201.94;4957044;29;1188;-96
2022/04/15 09:04:26;;;;;;;;;;;;;;;4.96;58.13;102212.47;4957242;29;1186;-95
2022/04/15 09:06:53;;;;;;;;;;;;;;;4.99;58.02;102200.66;4956412;29;2115;-95
2022/04/15 09:09:20;;;;;;;;;;;;;;;5.05;57.88;102223.28;4957617;29;1214;-96
2022/04/15 09:11:46;;;;;;;;;;;;;;;5.03;57.94;102223.44;4956809;29;1921;-96
2022/04/15 09:14:13;;;;;;;;;;;;;;;5.03;58.13;102223.44;4943682;29;2591;-96
2022/04/15 09:16:40;;;;;;;;;;;;;;;5.04;58.12;102224.28;4954202;29;2044;-95
2022/04/15 09:19:07;;;;;;;;;;;;;;;5.06;58.07;102220.50;4956683;29;1906;-95
2022/04/15 09:21:33;;;;;;;;;;;;;;;5.08;58.09;102223.84;4956953;29;1210;-95
2022/04/15 09:24:00;;;;;;;;;;;;;;;5.07;58.07;102221.31;4956662;29;1620;-96
2022/04/15 09:26:27;;;;;;;;;;;;;;;5.10;57.93;102221.03;4956830;29;1197;-96
2022/04/15 09:28:54;;;;;;;;;;;;;;;5.11;58.02;102226.22;4954181;29;2168;-95
2022/04/15 09:31:20;;;;;;;;;;;;;;;5.12;58.06;102219.91;4957023;29;1182;-95
2022/04/15 09:33:47;;;;;;;;;;;;;;;5.15;57.80;102224.13;4956758;28;1209;-95
2022/04/15 09:36:14;;;;;;;;;;;;;;;5.17;58.24;102228.31;4949618;29;3311;-95
2022/04/15 09:38:40;;;;;;;;;;;;;;;5.21;58.20;102228.91;4941116;29;2178;-95
2022/04/15 09:41:07;;;;;;;;;;;;;;;5.24;57.83;102225.94;4937612;29;1988;-96
2022/04/15 09:43:33;;;;;;;;;;;;;;;5.25;58.03;102227.59;4950546;29;2052;-96
2022/04/15 09:46:00;;;;;;;;;;;;;;;5.25;57.99;102232.94;4956226;29;2210;-96
2022/04/15 09:48:26;;;;;;;;;;;;;;;5.29;58.05;102234.34;4955367;29;2151;-96
2022/04/15 09:50:53;;;;;;;;;;;;;;;5.30;58.00;102238.72;4972444;28;1275;-96
2022/04/15 09:53:19;;;;;;;;;;;;;;;5.31;58.08;102237.72;4956287;29;1288;-96
2022/04/15 09:55:46;;;;;;;;;;;;;;;5.33;57.96;102237.59;4956274;29;2190;-96
2022/04/15 09:58:13;;;;;;;;;;;;;;;5.37;58.24;102241.66;4954919;29;2099;-96
2022/04/15 10:00:39;;;;;;;;;;;;;;;5.37;58.31;102238.97;4972730;28;1973;-96
2022/04/15 10:03:06;;;;;;;;;;;;;;;5.40;57.96;102241.34;4956418;29;1332;-96
2022/04/15 10:05:32;;;;;;;;;;;;;;;5.42;58.10;102248.25;4954146;29;2412;-96
2022/04/15 10:07:59;;;;;;;;;;;;;;;5.41;58.01;102251.91;4943264;29;2191;-96
2022/04/15 10:10:25;;;;;;;;;;;;;;;5.44;58.16;102253.44;4937337;29;1253;-96
2022/04/15 10:12:52;;;;;;;;;;;;;;;5.44;58.29;102261.44;4941007;28;2112;-96
2022/04/15 10:15:18;;;;;;;;;;;;;;;5.47;58.12;102255.81;4955514;29;1354;-96
2022/04/15 10:17:45;;;;;;;;;;;;;;;5.48;58.42;102252.16;4945454;29;2123;-96
2022/04/15 10:20:11;;;;;;;;;;;;;;;5.51;58.28;102248.38;4957065;29;1986;-96
2022/04/15 10:22:38;;;;;;;;;;;;;;;5.50;58.40;102254.69;4955956;29;2236;-96
2022/04/15 10:25:04;;;;;;;;;;;;;;;5.52;58.32;102250.03;4956365;29;1290;-96
2022/04/15 10:27:31;;;;;;;;;;;;;;;5.52;58.57;102242.88;4948103;29;2246;-96
2022/04/15 10:29:59;;;;;;;;;;;;;;;5.56;58.34;102256.78;4937545;29;1253;-95
2022/04/15 10:32:26;;;;;;;;;;;;;;;5.61;58.46;102246.50;4946617;29;4124;-96
2022/04/15 10:34:52;;;;;;;;;;;;;;;5.64;58.57;102256.91;4956233;29;1234;-96
2022/04/15 10:37:19;;;;;;;;;;;;;;;5.61;58.51;102257.19;4956075;29;1561;-96
2022/04/15 10:39:47;;;;;;;;;;;;;;;5.62;58.47;102258.88;4955052;29;2308;-96
2022/04/15 10:42:17;;;;;;;;;;;;;;;5.61;58.55;102263.38;4948644;29;2224;-96
2022/04/15 10:44:44;;;;;;;;;;;;;;;5.62;58.82;102266.91;4957002;29;1300;-96
2022/04/15 10:47:11;;;;;;;;;;;;;;;5.64;58.67;102255.06;4954228;29;2099;-95
2022/04/15 10:49:37;;;;;;;;;;;;;;;5.65;58.96;102266.63;4955795;29;1190;-96
2022/04/15 10:52:04;;;;;;;;;;;;;;;5.66;58.80;102269.13;4974343;28;1197;-96
2022/04/15 10:54:31;;;;;;;;;;;;;;;5.68;59.04;102267.16;4974732;28;2687;-96
2022/04/15 10:56:57;;;;;;;;;;;;;;;5.68;58.60;102261.81;4959920;29;2028;-96
2022/04/15 11:02:10;;;;;;;;;;;;;;;5.73;59.05;102272.06;4953263;28;1522;-96
2022/04/15 11:04:37;;;;;;;;;;;;;;;5.74;59.02;102273.75;4938604;28;2285;-95
2022/04/15 11:07:03;;;;;;;;;;;;;;;5.76;59.11;102271.75;4954694;28;2103;-96
2022/04/15 11:09:30;;;;;;;;;;;;;;;5.77;59.18;102262.78;4956169;29;1192;-96
2022/04/15 11:11:57;;;;;;;;;;;;;;;5.78;59.17;102272.47;4946788;28;3909;-96
2022/04/15 11:14:24;;;;;;;;;;;;;;;5.82;59.25;102278.34;4947279;28;2175;-95
2022/04/15 11:16:53;;;;;;;;;;;;;;;5.83;59.31;102274.72;4947577;29;1732;-96
2022/04/15 11:19:19;;;;;;;;;;;;;;;5.84;59.07;102269.19;4936935;28;2415;-95
2022/04/15 11:21:49;;;;;;;;;;;;;;;5.85;59.39;102268.22;4951948;29;2000;-96
2022/04/15 11:24:16;;;;;;;;;;;;;;;5.85;59.43;102268.22;4958399;29;2143;-96
2022/04/15 11:26:44;;;;;;;;;;;;;;;5.88;59.05;102267.94;4952829;29;2143;-96
2022/04/15 11:29:11;;;;;;;;;;;;;;;5.89;59.52;102260.75;4955582;29;1166;-96
2022/04/15 11:31:38;;;;;;;;;;;;;;;5.90;59.55;102262.44;4958750;29;1304;-96
2022/04/15 11:34:04;;;;;;;;;;;;;;;5.92;59.63;102261.28;4958940;29;1288;-96
2022/04/15 11:36:31;;;;;;;;;;;;;;;5.95;59.33;102257.53;4957933;29;2098;-96
2022/04/15 11:38:57;;;;;;;;;;;;;;;5.96;59.46;102256.53;4959393;28;1441;-96
2022/04/15 11:41:24;;;;;;;;;;;;;;;5.98;59.39;102253.72;4957084;29;2134;-96
2022/04/15 11:43:50;;;;;;;;;;;;;;;5.98;59.67;102254.53;4947377;29;1529;-96
2022/04/15 11:46:17;;;;;;;;;;;;;;;6.00;59.61;102251.72;4949104;29;1887;-96
2022/04/15 11:48:44;;;;;;;;;;;;;;;6.01;59.64;102242.72;4957752;28;2170;-96
2022/04/15 11:51:10;;;;;;;;;;;;;;;6.03;59.58;102252.28;4956305;29;2545;-96
2022/04/15 11:53:37;;;;;;;;;;;;;;;6.05;59.83;102247.59;4939284;29;1290;-96
2022/04/15 11:56:03;;;;;;;;;;;;;;;6.07;59.74;102239.44;4938998;29;1614;-96
2022/04/15 11:58:30;;;;;;;;;;;;;;;6.10;59.83;102242.66;4955099;29;2036;-96
2022/04/15 12:00:56;;;;;;;;;;;;;;;6.12;59.79;102240.69;4957385;29;1981;-96
2022/04/15 12:03:23;;;;;;;;;;;;;;;6.13;59.66;102244.19;4957702;29;2106;-96
2022/04/15 12:05:49;;;;;;;;;;;;;;;6.13;59.93;102244.19;4958256;29;1369;-96
2022/04/15 12:08:16;;;;;;;;;;;;;;;6.13;59.78;102250.38;4957518;29;2209;-96
2022/04/15 12:10:42;;;;;;;;;;;;;;;6.16;60.27;102248.41;4959337;28;1265;-96
2022/04/15 12:13:09;;;;;;;;;;;;;;;6.18;59.98;102246.41;4957109;28;1989;-96
2022/04/15 12:15:35;;;;;;;;;;;;;;;6.19;59.84;102254.28;4953843;29;2109;-96
2022/04/15 12:18:02;;;;;;;;;;;;;;;6.21;60.20;102257.66;4939651;29;3986;-96
2022/04/15 12:20:29;;;;;;;;;;;;;;;6.23;60.06;102252.16;4951156;29;2381;-96
2022/04/15 12:22:55;;;;;;;;;;;;;;;6.24;60.11;102254.69;4957753;29;1681;-96
2022/04/15 12:25:22;;;;;;;;;;;;;;;6.25;59.96;102251.03;4952504;28;2415;-96
2022/04/15 12:27:50;;;;;;;;;;;;;;;6.28;60.21;102260.59;4950419;29;3409;-96
2022/04/15 12:30:15;;;;;;;;;;;;;;;6.29;60.12;102256.91;4944845;29;2029;-96
2022/04/15 12:32:44;;;;;;;;;;;;;;;6.31;60.24;102260.28;4958671;29;1316;-96
2022/04/15 12:35:10;;;;;;;;;;;;;;;6.33;60.41;102261.00;4958593;29;2681;-96
2022/04/15 12:37:37;;;;;;;;;;;;;;;6.35;60.30;102246.47;5036426;23;2045;-96
2022/04/15 12:40:04;;;;;;;;;;;;;;;6.35;60.30;102243.78;4945211;29;2005;-96
2022/04/15 12:42:31;;;;;;;;;;;;;;;6.39;60.68;102248.84;4930465;29;2199;-96
2022/04/15 12:44:57;;;;;;;;;;;;;;;6.39;60.46;102243.50;4957424;29;1337;-96
2022/04/15 12:47:23;;;;;;;;;;;;;;;6.40;60.41;102247.84;4955986;29;2066;-96
2022/04/15 12:49:50;;;;;;;;;;;;;;;6.42;60.28;102256.56;4941265;29;1322;-96
2022/04/15 12:52:17;;;;;;;;;;;;;;;6.44;60.45;102257.25;4941928;29;1339;-96
2022/04/15 12:54:43;;;;;;;;;;;;;;;6.46;60.76;102256.09;4941581;29;1319;-96
2022/04/15 12:57:10;;;;;;;;;;;;;;;6.48;60.65;102255.97;4938592;29;2175;-96
2022/04/15 12:59:38;;;;;;;;;;;;;;;6.49;60.78;102258.47;4950293;29;2254;-96